Time;durP1;ratioP1;P1;durP2;ratioP2;P2;SDS_P1;SDS_P2;PMS_P1;PMS_P2;Temp;Humidity;BMP_temperature;BMP_pressure;BME280_temperature;BME280_humidity;BME280_pressure;Samples;Min_cycle;Max_cycle;Signal;HPM_P1;HPM_P2
2021/07/03 00:00:13;;;;;;;7.00;4.50;;;;;;;20.66;70.77;98551.82;129797;1092;23102;-63
2021/07/03 00:02:42;;;;;;;9.18;4.83;;;;;;;20.63;71.01;98546.97;129758;1093;22541;-62
2021/07/03 00:05:11;;;;;;;8.13;4.80;;;;;;;20.63;71.15;98552.51;129610;1092;113587;-62
2021/07/03 00:07:44;;;;;;;8.10;4.73;;;;;;;20.62;70.73;98541.81;129766;1093;23434;-63
2021/07/03 00:10:12;;;;;;;6.85;4.18;;;;;;;20.62;70.98;98541.81;129697;1093;114259;-62
2021/07/03 00:12:42;;;;;;;6.35;3.95;;;;;;;20.60;70.93;98542.16;129766;1093;22668;-62
2021/07/03 00:15:15;;;;;;;7.53;4.48;;;;;;;20.60;70.96;98547.69;129781;1092;22559;-62
2021/07/03 00:17:44;;;;;;;7.78;4.08;;;;;;;20.56;70.85;98535.70;129704;1092;114233;-62
2021/07/03 00:20:13;;;;;;;6.50;3.93;;;;;;;20.54;70.75;98540.77;129722;1092;22632;-63
2021/07/03 00:22:42;;;;;;;9.15;4.13;;;;;;;20.51;70.75;98544.22;129704;1093;114230;-62
2021/07/03 00:25:12;;;;;;;7.75;4.10;;;;;;;20.49;70.80;98543.76;129754;1092;22615;-63
2021/07/03 00:27:41;;;;;;;7.98;4.13;;;;;;;20.46;70.83;98530.64;129728;1093;114323;-62
2021/07/03 00:30:12;;;;;;;15.88;4.18;;;;;;;20.44;70.69;98530.18;129774;1093;23032;-62
2021/07/03 00:32:42;;;;;;;5.03;3.43;;;;;;;20.42;70.75;98524.18;129815;1093;22599;-62
2021/07/03 00:35:12;;;;;;;8.05;3.90;;;;;;;20.41;70.79;98522.56;129686;1093;113982;-61
2021/07/03 00:37:41;;;;;;;6.10;3.33;;;;;;;20.37;70.90;98518.88;129847;1093;23094;-62
2021/07/03 00:40:11;;;;;;;9.28;3.90;;;;;;;20.33;70.80;98510.45;129657;1093;114214;-62
2021/07/03 00:42:40;;;;;;;9.70;3.38;;;;;;;20.30;70.82;98513.09;129745;1093;22545;-62
2021/07/03 00:45:11;;;;;;;8.65;3.90;;;;;;;20.28;70.76;98518.16;129744;1093;22624;-62
2021/07/03 00:47:39;;;;;;;6.80;3.60;;;;;;;20.25;70.95;98514.13;129739;1093;114993;-62
2021/07/03 00:50:10;;;;;;;8.05;4.20;;;;;;;20.24;71.15;98503.41;129782;1093;23324;-62
2021/07/03 00:52:41;;;;;;;8.05;4.13;;;;;;;20.24;71.28;98497.88;129717;1093;113774;-63
2021/07/03 00:55:16;;;;;;;7.75;3.78;;;;;;;20.23;71.34;98499.02;129749;1093;22619;-63
2021/07/03 00:57:45;;;;;;;7.05;3.75;;;;;;;20.20;71.33;98496.97;129751;1093;114104;-63
2021/07/03 01:00:14;;;;;;;10.98;3.93;;;;;;;20.16;71.28;98493.28;129741;1093;22554;-63
2021/07/03 01:02:44;;;;;;;10.20;3.70;;;;;;;20.11;71.55;98486.81;129873;1092;24481;-63
2021/07/03 01:05:13;;;;;;;7.23;4.18;;;;;;;20.11;72.08;98483.24;129670;1092;114257;-63
2021/07/03 01:07:43;;;;;;;5.80;3.20;;;;;;;20.10;72.01;98487.97;129884;1093;26359;-63
2021/07/03 01:10:26;;;;;;;8.93;4.23;;;;;;;20.08;72.17;98490.27;129673;1092;113587;-63
2021/07/03 01:13:02;;;;;;;14.25;4.28;;;;;;;20.06;72.21;98484.27;129826;1093;22504;-62
2021/07/03 01:15:31;;;;;;;8.98;4.75;;;;;;;20.07;72.25;98477.59;129808;1092;22555;-63
2021/07/03 01:18:00;;;;;;;9.05;4.30;;;;;;;20.06;72.66;98481.50;129773;1093;114562;-62
2021/07/03 01:20:29;;;;;;;5.05;4.00;;;;;;;20.08;72.40;98481.97;129744;1093;22538;-63
2021/07/03 01:22:58;;;;;;;8.60;4.73;;;;;;;20.09;72.45;98480.02;129738;1093;114084;-63
2021/07/03 01:25:27;;;;;;;19.30;4.43;;;;;;;20.09;72.63;98477.25;129790;1093;23209;-63
2021/07/03 01:28:03;;;;;;;6.08;4.05;;;;;;;20.08;72.65;98481.16;129714;1092;114195;-63
2021/07/03 01:30:34;;;;;;;6.27;4.57;;;;;;;20.09;72.99;98482.78;129800;1092;23284;-63
2021/07/03 01:33:03;;;;;;;9.50;4.65;;;;;;;20.08;72.92;98479.20;129744;1092;22586;-63
2021/07/03 01:35:34;;;;;;;6.75;4.50;;;;;;;20.08;72.95;98483.93;129693;1093;114015;-63
2021/07/03 01:38:26;;;;;;;8.95;4.85;;;;;;;20.05;72.99;98476.34;129834;1092;22594;-63
2021/07/03 01:41:01;;;;;;;9.87;4.10;;;;;;;20.05;73.32;98468.05;129603;1093;114812;-63
2021/07/03 01:43:36;;;;;;;7.88;4.85;;;;;;;20.04;73.41;98470.01;129751;1093;23099;-63
2021/07/03 01:46:06;;;;;;;11.13;4.78;;;;;;;20.06;73.19;98472.41;129667;1092;114126;-63
2021/07/03 01:48:39;;;;;;;19.35;6.00;;;;;;;20.07;73.22;98476.78;129723;1093;22599;-64
2021/07/03 01:51:18;;;;;;;6.05;4.58;;;;;;;20.06;73.45;98475.97;129776;1093;22629;-63
2021/07/03 01:53:47;;;;;;;9.38;4.85;;;;;;;20.05;73.83;98479.11;129672;1093;113938;-63
2021/07/03 01:56:16;;;;;;;10.48;5.70;;;;;;;20.03;74.08;98484.18;129774;1093;22600;-64
2021/07/03 01:58:46;;;;;;;6.35;4.65;;;;;;;20.02;74.08;98486.13;129559;1093;114112;-64
2021/07/03 02:01:23;;;;;;;8.33;4.93;;;;;;;20.02;74.35;98482.56;129714;1093;22570;-63
2021/07/03 02:03:53;;;;;;;7.60;5.28;;;;;;;20.01;74.45;98475.42;129626;1093;113952;-63
2021/07/03 02:06:29;;;;;;;8.33;5.35;;;;;;;20.01;74.42;98478.98;129768;1093;22608;-63
2021/07/03 02:08:59;;;;;;;11.28;4.73;;;;;;;20.01;74.82;98475.42;129713;1092;22591;-63
2021/07/03 02:11:28;;;;;;;18.15;5.73;;;;;;;20.01;74.46;98480.95;129661;1093;115318;-63
2021/07/03 02:14:04;;;;;;;8.25;5.45;;;;;;;19.99;74.77;98480.48;129758;1093;22552;-63
2021/07/03 02:16:38;;;;;;;8.00;5.15;;;;;;;19.99;75.11;98481.29;129634;1093;118688;-63
2021/07/03 02:19:08;;;;;;;8.60;5.40;;;;;;;19.98;74.97;98482.44;129704;1092;22583;-64
2021/07/03 02:21:39;;;;;;;5.85;5.15;;;;;;;19.98;75.16;98490.73;129667;1092;113868;-63
2021/07/03 02:24:10;;;;;;;8.20;5.88;;;;;;;19.99;75.26;98492.35;129700;1093;22586;-63
2021/07/03 02:26:40;;;;;;;12.38;5.90;;;;;;;19.99;75.40;98499.84;129752;1093;22561;-63
2021/07/03 02:29:09;;;;;;;10.63;5.98;;;;;;;19.97;75.80;98496.61;129601;1093;113943;-63
2021/07/03 02:31:38;;;;;;;10.53;5.93;;;;;;;19.98;75.71;98490.73;129783;1093;22566;-63
2021/07/03 02:34:07;;;;;;;10.03;6.53;;;;;;;20.00;75.99;98488.44;129657;1093;114157;-64
2021/07/03 02:36:37;;;;;;;9.98;6.78;;;;;;;20.01;76.01;98487.28;129814;1093;22556;-63
2021/07/03 02:39:09;;;;;;;13.65;7.48;;;;;;;20.03;76.08;98489.70;129757;1093;22587;-63
2021/07/03 02:41:48;;;;;;;11.63;6.80;;;;;;;20.05;76.15;98484.64;129700;1093;114029;-63
2021/07/03 02:44:17;;;;;;;9.15;6.30;;;;;;;20.05;76.45;98488.19;129748;1093;22637;-63
2021/07/03 02:46:48;;;;;;;9.48;6.53;;;;;;;20.07;76.20;98490.61;126566;1093;114377;-62
2021/07/03 02:49:20;;;;;;;9.63;6.70;;;;;;;20.08;76.33;98490.27;129756;1093;22574;-63
2021/07/03 02:51:49;;;;;;;11.93;6.25;;;;;;;20.08;76.59;98476.44;129691;1093;114015;-62
2021/07/03 02:54:20;;;;;;;11.40;6.78;;;;;;;20.09;76.55;98489.12;129676;1091;23114;-63
2021/07/03 02:56:49;;;;;;;8.25;7.05;;;;;;;20.09;76.72;98497.41;129759;1093;22569;-63
2021/07/03 02:59:18;;;;;;;10.55;6.28;;;;;;;20.10;76.55;98493.50;129647;1093;113840;-63
2021/07/03 03:01:48;;;;;;;12.15;7.58;;;;;;;20.12;76.80;98495.92;129755;1093;25757;-63
2021/07/03 03:04:21;;;;;;;8.45;6.83;;;;;;;20.13;76.99;98501.11;129685;1093;114123;-63
2021/07/03 03:06:50;;;;;;;8.48;7.05;;;;;;;20.15;77.10;98500.77;129747;1093;22560;-63
2021/07/03 03:09:26;;;;;;;7.95;6.43;;;;;;;20.15;77.27;98497.19;129783;1093;22565;-63
2021/07/03 03:11:55;;;;;;;10.03;7.85;;;;;;;20.13;77.80;98498.34;129654;1093;114167;-63
2021/07/03 03:14:25;;;;;;;12.18;7.68;;;;;;;20.16;78.28;98501.58;129754;1093;22678;-63
2021/07/03 03:17:03;;;;;;;15.75;8.30;;;;;;;20.18;78.21;98507.57;129625;1093;115501;-63
2021/07/03 03:19:33;;;;;;;9.55;7.48;;;;;;;20.21;78.36;98501.32;129746;1093;22612;-63
2021/07/03 03:22:03;;;;;;;11.65;7.33;;;;;;;20.22;78.20;98503.74;129594;1092;114448;-63
2021/07/03 03:24:33;;;;;;;9.95;7.95;;;;;;;20.24;78.63;98501.44;129757;1093;22566;-63
2021/07/03 03:27:03;;;;;;;9.15;8.08;;;;;;;20.27;78.55;98505.48;126100;1093;24189;-62
2021/07/03 03:29:32;;;;;;;10.33;7.55;;;;;;;20.29;78.68;98498.45;129706;1091;113787;-63
2021/07/03 03:32:01;;;;;;;14.55;8.75;;;;;;;20.31;78.32;98504.45;129718;1093;22645;-63
2021/07/03 03:34:31;;;;;;;10.35;8.30;;;;;;;20.33;78.24;98510.45;129718;1093;113851;-63
2021/07/03 03:37:11;;;;;;;9.08;6.90;;;;;;;20.34;78.04;98503.73;129756;1093;23382;-63
2021/07/03 03:39:42;;;;;;;11.08;6.93;;;;;;;20.34;77.93;98516.79;129679;1092;113902;-63
2021/07/03 03:42:11;;;;;;;9.33;6.93;;;;;;;20.32;77.38;98513.56;129742;1092;22552;-63
2021/07/03 03:44:41;;;;;;;9.30;7.05;;;;;;;20.30;77.40;98508.37;129772;1092;22530;-63
2021/07/03 03:47:10;;;;;;;7.20;5.83;;;;;;;20.30;77.22;98507.56;129650;1092;114508;-63
2021/07/03 03:49:39;;;;;;;7.13;5.33;;;;;;;20.29;76.81;98514.25;129783;1093;22567;-63
2021/07/03 03:52:11;;;;;;;7.50;5.50;;;;;;;20.29;76.87;98508.71;129620;1093;114352;-63
2021/07/03 03:54:40;;;;;;;5.65;4.83;;;;;;;20.29;76.38;98505.95;129732;1092;23440;-63
2021/07/03 03:57:23;;;;;;;6.53;5.45;;;;;;;20.25;76.46;98505.83;129718;1093;23180;-63
2021/07/03 03:59:53;;;;;;;6.28;5.70;;;;;;;20.24;76.87;98514.47;129658;1093;113803;-64
2021/07/03 04:05:13;;;;;;;9.88;5.50;;;;;;;20.28;76.88;98512.63;129661;1092;113808;-64
2021/07/03 04:07:43;;;;;;;6.85;5.55;;;;;;;20.30;76.88;98518.63;129715;1093;22616;-63
2021/07/03 04:10:13;;;;;;;9.40;5.88;;;;;;;20.32;76.75;98519.09;129685;1093;113961;-63
2021/07/03 04:12:42;;;;;;;6.63;5.93;;;;;;;20.29;76.46;98517.02;129755;1093;23594;-64
2021/07/03 04:15:13;;;;;;;8.78;5.55;;;;;;;20.31;76.53;98518.28;129790;1093;23091;-62
2021/07/03 04:17:42;;;;;;;6.70;5.43;;;;;;;20.32;76.47;98510.80;129648;1093;113771;-64
2021/07/03 04:20:12;;;;;;;8.40;6.45;;;;;;;20.33;76.49;98507.69;129743;1092;23985;-64
2021/07/03 04:22:41;;;;;;;6.03;5.13;;;;;;;20.36;76.67;98503.42;129668;1092;113879;-63
2021/07/03 04:25:14;;;;;;;7.60;6.83;;;;;;;20.42;76.74;98510.34;129783;1093;22622;-62
2021/07/03 04:27:44;;;;;;;12.70;8.23;;;;;;;20.44;77.02;98508.84;129662;1092;113857;-63
2021/07/03 04:30:14;;;;;;;9.98;8.20;;;;;;;20.48;76.95;98503.44;129745;1093;22601;-63
2021/07/03 04:32:45;;;;;;;11.35;8.23;;;;;;;20.50;76.87;98506.63;129764;1092;22648;-63
2021/07/03 04:35:14;;;;;;;13.28;8.20;;;;;;;20.51;76.93;98501.91;129621;1092;113800;-63
2021/07/03 04:37:43;;;;;;;9.63;7.38;;;;;;;20.53;76.90;98513.44;129794;1093;23573;-63
2021/07/03 04:40:12;;;;;;;16.40;8.43;;;;;;;20.54;76.83;98512.28;129602;1093;114030;-63
2021/07/03 04:42:47;;;;;;;9.55;7.28;;;;;;;20.58;76.45;98514.02;129802;1093;23450;-63
2021/07/03 04:45:21;;;;;;;8.75;7.33;;;;;;;20.61;76.01;98502.26;129779;1093;23604;-63
2021/07/03 04:47:51;;;;;;;8.77;6.63;;;;;;;20.65;76.13;98505.11;129619;1093;114813;-63
2021/07/03 04:50:21;;;;;;;8.63;6.63;;;;;;;20.69;75.86;98503.27;129765;1091;23587;-63
2021/07/03 04:52:50;;;;;;;8.23;7.18;;;;;;;20.72;75.68;98506.15;129639;1093;113797;-63
2021/07/03 04:55:19;;;;;;;12.43;8.10;;;;;;;20.78;76.01;98510.27;129476;1093;22682;-63
2021/07/03 04:57:47;;;;;;;9.35;7.10;;;;;;;20.83;75.88;98498.16;125110;1092;114198;-63
2021/07/03 05:00:17;;;;;;;10.28;7.90;;;;;;;20.85;75.85;98506.92;125120;1093;22793;-65
2021/07/03 05:02:46;;;;;;;10.43;7.93;;;;;;;20.90;75.77;98511.41;129779;1093;23132;-64
2021/07/03 05:05:15;;;;;;;8.70;6.93;;;;;;;20.94;75.78;98506.77;129655;1092;114329;-63
2021/07/03 05:07:59;;;;;;;8.78;6.65;;;;;;;20.97;75.70;98508.84;129774;1093;22554;-63
2021/07/03 05:10:30;;;;;;;9.20;7.23;;;;;;;21.02;75.26;98506.64;129640;1093;113732;-63
2021/07/03 05:13:01;;;;;;;9.83;7.50;;;;;;;21.09;75.42;98508.80;129764;1092;23722;-62
2021/07/03 05:15:32;;;;;;;9.78;7.08;;;;;;;21.15;75.24;98508.20;129770;1093;22537;-63
2021/07/03 05:18:21;;;;;;;10.68;7.95;;;;;;;21.23;74.76;98506.45;129688;1092;113838;-61
2021/07/03 05:20:51;;;;;;;11.28;7.75;;;;;;;21.29;74.67;98507.02;129776;1092;22587;-62
2021/07/03 05:23:20;;;;;;;9.43;7.33;;;;;;;21.34;74.41;98510.36;129611;1092;113939;-62
2021/07/03 05:25:52;;;;;;;9.18;7.10;;;;;;;21.37;74.06;98506.05;129816;1092;22559;-61
2021/07/03 05:28:21;;;;;;;11.00;6.88;;;;;;;21.36;73.66;98496.12;129575;1093;114316;-61
2021/07/03 05:30:50;;;;;;;11.10;7.50;;;;;;;21.37;73.64;98501.31;129773;1093;22580;-61
2021/07/03 05:33:20;;;;;;;10.13;7.10;;;;;;;21.39;73.74;98496.22;129699;1092;22596;-62
2021/07/03 05:35:49;;;;;;;9.53;7.75;;;;;;;21.46;73.21;98498.39;129640;1093;114053;-63
2021/07/03 05:38:18;;;;;;;11.43;7.30;;;;;;;21.54;72.98;98497.41;129773;1093;22667;-62
2021/07/03 05:40:47;;;;;;;9.93;7.43;;;;;;;21.63;72.98;98503.61;129693;1092;114193;-60
2021/07/03 05:43:16;;;;;;;9.15;7.18;;;;;;;21.75;72.41;98503.53;129749;1092;22584;-62
2021/07/03 05:45:45;;;;;;;8.65;7.75;;;;;;;21.84;71.98;98511.67;129795;1093;22652;-61
2021/07/03 05:48:15;;;;;;;15.75;7.53;;;;;;;21.92;71.87;98510.70;129574;1092;113596;-63
2021/07/03 05:50:44;;;;;;;9.15;6.95;;;;;;;22.03;71.48;98506.25;129703;1093;22599;-62
2021/07/03 05:53:13;;;;;;;9.70;7.58;;;;;;;22.11;71.13;98508.03;129629;1093;115316;-62
2021/07/03 05:55:42;;;;;;;17.05;8.60;;;;;;;22.18;71.05;98513.77;129780;1093;23464;-62
2021/07/03 05:58:11;;;;;;;15.50;7.75;;;;;;;22.21;70.42;98513.06;129644;1093;114064;-61
2021/07/03 06:00:40;;;;;;;9.88;7.68;;;;;;;22.23;70.22;98520.99;129753;1092;23388;-63
2021/07/03 06:03:09;;;;;;;13.40;7.95;;;;;;;22.25;70.01;98507.57;129738;1093;22608;-65
2021/07/03 06:05:38;;;;;;;9.85;7.50;;;;;;;22.27;70.11;98516.34;129649;1093;114462;-64
2021/07/03 06:08:07;;;;;;;15.65;7.78;;;;;;;22.29;69.97;98522.34;129785;1093;22535;-63
2021/07/03 06:10:36;;;;;;;12.13;8.33;;;;;;;22.32;70.06;98512.50;129686;1093;114124;-63
2021/07/03 06:13:05;;;;;;;8.90;7.23;;;;;;;22.35;70.25;98514.56;129769;1093;22622;-65
2021/07/03 06:15:34;;;;;;;8.15;7.30;;;;;;;22.42;70.49;98514.71;129783;1092;22556;-63
2021/07/03 06:18:03;;;;;;;42.98;11.03;;;;;;;22.50;70.08;98516.50;129658;1093;113814;-65
2021/07/03 06:20:32;;;;;;;18.48;8.05;;;;;;;22.60;70.04;98515.94;129760;1093;22697;-67
2021/07/03 06:23:01;;;;;;;10.90;6.90;;;;;;;22.69;69.94;98521.28;129663;1092;114481;-64
2021/07/03 06:25:30;;;;;;;14.00;7.65;;;;;;;22.77;69.71;98526.67;129730;1093;22641;-65
2021/07/03 06:27:59;;;;;;;20.95;7.45;;;;;;;22.84;69.73;98515.71;129666;1093;114098;-64
2021/07/03 06:30:27;;;;;;;26.15;9.43;;;;;;;22.88;69.53;98524.13;129753;1092;23669;-67
2021/07/03 06:32:56;;;;;;;15.68;8.05;;;;;;;22.89;69.21;98517.41;129773;1092;22553;-67
2021/07/03 06:35:25;;;;;;;14.68;8.10;;;;;;;22.88;69.10;98515.80;129665;1093;113941;-70
2021/07/03 06:37:54;;;;;;;16.40;7.70;;;;;;;22.87;68.85;98514.98;129785;1092;22569;-71
2021/07/03 06:40:23;;;;;;;16.63;6.43;;;;;;;22.87;68.45;98509.44;129606;1093;114535;-71
2021/07/03 06:42:51;;;;;;;8.13;5.30;;;;;;;22.89;67.74;98514.63;129753;1093;22517;-70
2021/07/03 06:45:21;;;;;;;16.80;6.25;;;;;;;22.93;67.47;98503.59;129739;1092;24294;-71
2021/07/03 06:50:27;;;;;;;9.40;5.85;;;;;;;22.99;67.44;98508.48;125309;1093;22784;-69
2021/07/03 06:52:54;;;;;;;14.30;6.50;;;;;;;23.01;66.67;98503.38;125159;1093;113604;-69
2021/07/03 06:55:22;;;;;;;10.20;6.60;;;;;;;23.00;66.52;98507.32;125116;1092;22941;-70
2021/07/03 06:57:50;;;;;;;13.90;6.63;;;;;;;22.98;66.32;98514.41;129553;1092;22636;-69
2021/07/03 07:00:18;;;;;;;16.60;7.48;;;;;;;22.96;66.34;98517.55;129588;1093;113931;-69
2021/07/03 07:02:45;;;;;;;15.03;6.43;;;;;;;22.94;66.04;98513.55;129754;1091;22636;-69
2021/07/03 07:05:19;;;;;;;17.00;7.60;;;;;;;22.95;66.28;98513.16;129393;1093;113684;-64
2021/07/03 07:07:49;;;;;;;14.15;6.70;;;;;;;22.98;66.39;98509.66;125232;1093;22817;-65
2021/07/03 07:10:36;;;;;;;11.45;7.30;;;;;;;23.03;66.17;98526.05;125130;1093;113674;-65
2021/07/03 07:13:24;;;;;;;8.73;6.23;;;;;;;23.06;65.89;98527.30;129760;1093;22606;-65
2021/07/03 07:15:52;;;;;;;10.45;6.10;;;;;;;23.06;65.69;98533.66;129721;1092;22537;-65
2021/07/03 07:18:26;;;;;;;13.75;6.78;;;;;;;23.08;66.23;98536.88;129623;1092;113843;-65
2021/07/03 07:20:53;;;;;;;17.00;6.60;;;;;;;23.13;66.69;98531.02;129736;1093;23449;-65
2021/07/03 07:23:21;;;;;;;13.68;5.88;;;;;;;23.19;66.42;98531.54;129691;1093;113884;-65
2021/07/03 07:25:50;;;;;;;11.18;6.65;;;;;;;23.22;66.70;98533.59;129761;1092;22580;-65
2021/07/03 07:28:18;;;;;;;19.33;6.30;;;;;;;23.26;66.37;98535.25;129637;1092;114161;-65
2021/07/03 07:30:45;;;;;;;13.93;5.70;;;;;;;23.31;65.79;98547.26;129788;1093;22526;-65
2021/07/03 07:33:13;;;;;;;9.25;4.35;;;;;;;23.35;65.26;98542.59;129761;1093;22579;-65
2021/07/03 07:35:40;;;;;;;7.55;5.05;;;;;;;23.40;65.38;98543.07;129678;1092;114007;-66
2021/07/03 07:38:08;;;;;;;7.00;5.78;;;;;;;23.47;65.55;98543.23;129768;1093;22596;-66
2021/07/03 07:40:35;;;;;;;10.20;4.90;;;;;;;23.58;65.49;98537.90;126791;1091;114145;-65
2021/07/03 07:43:03;;;;;;;7.78;4.95;;;;;;;23.67;64.65;98532.09;129707;1093;26668;-65
2021/07/03 07:45:31;;;;;;;8.88;5.33;;;;;;;23.75;64.47;98543.00;129804;1091;22553;-65
2021/07/03 07:47:59;;;;;;;7.43;4.98;;;;;;;23.83;63.93;98533.59;129670;1092;113961;-65
2021/07/03 07:50:27;;;;;;;12.48;5.35;;;;;;;23.92;63.68;98536.96;129768;1092;22626;-65
2021/07/03 07:52:54;;;;;;;9.90;4.85;;;;;;;24.01;63.34;98533.92;129590;1093;113788;-65
2021/07/03 07:55:22;;;;;;;5.95;4.50;;;;;;;24.07;62.65;98537.21;129768;1093;22597;-65
2021/07/03 07:57:49;;;;;;;7.40;4.40;;;;;;;24.10;62.71;98536.45;129732;1093;22581;-65
2021/07/03 08:00:18;;;;;;;8.88;4.93;;;;;;;24.14;62.31;98529.77;129700;1093;115065;-66
2021/07/03 08:02:46;;;;;;;3.95;3.50;;;;;;;24.17;61.96;98526.25;129685;1093;22585;-65
2021/07/03 08:05:14;;;;;;;8.73;5.00;;;;;;;24.20;61.75;98527.48;129715;1093;113870;-65
2021/07/03 08:07:41;;;;;;;5.40;4.05;;;;;;;24.23;61.63;98529.56;129771;1093;22560;-65
2021/07/03 08:10:09;;;;;;;6.45;4.40;;;;;;;24.26;61.93;98524.03;129649;1093;114081;-65
2021/07/03 08:12:37;;;;;;;10.60;4.38;;;;;;;24.31;61.34;98520.95;129789;1093;23127;-65
2021/07/03 08:15:10;;;;;;;6.05;4.53;;;;;;;24.34;60.79;98529.73;129750;1092;22560;-65
2021/07/03 08:17:45;;;;;;;7.25;4.50;;;;;;;24.36;61.35;98541.30;129627;1093;113913;-65
2021/07/03 08:20:15;;;;;;;8.90;4.78;;;;;;;24.37;61.51;98520.64;129726;1093;23453;-66
2021/07/03 08:22:44;;;;;;;7.35;5.50;;;;;;;24.40;61.27;98533.79;129670;1093;113974;-65
2021/07/03 08:25:12;;;;;;;9.25;5.60;;;;;;;24.44;61.42;98541.03;129755;1092;22576;-66
2021/07/03 08:27:40;;;;;;;10.98;5.10;;;;;;;24.48;61.85;98541.09;129792;1092;22539;-65
2021/07/03 08:30:08;;;;;;;6.23;5.33;;;;;;;24.50;60.93;98541.53;129685;1093;114061;-65
2021/07/03 08:32:36;;;;;;;6.55;4.75;;;;;;;24.48;61.30;98538.31;129788;1093;23011;-65
2021/07/03 08:35:05;;;;;;;11.13;5.30;;;;;;;24.47;60.97;98540.29;129666;1092;113994;-65
2021/07/03 08:37:42;;;;;;;8.00;4.83;;;;;;;24.49;60.97;98537.13;129791;1092;22616;-66
2021/07/03 08:40:11;;;;;;;10.83;4.88;;;;;;;24.51;61.64;98543.94;129657;1093;113730;-65
2021/07/03 08:42:38;;;;;;;12.30;4.65;;;;;;;24.54;62.20;98548.74;129789;1093;23477;-65
2021/07/03 08:45:10;;;;;;;7.30;5.43;;;;;;;24.59;62.71;98553.20;129736;1092;22514;-66
2021/07/03 08:47:39;;;;;;;8.13;4.60;;;;;;;24.65;62.64;98548.92;129698;1093;113979;-68
2021/07/03 08:50:08;;;;;;;6.60;4.70;;;;;;;24.72;62.83;98546.23;129773;1093;22584;-68
2021/07/03 08:52:35;;;;;;;15.55;5.13;;;;;;;24.80;62.75;98536.81;129723;1092;114247;-68
2021/07/03 08:55:04;;;;;;;15.18;4.78;;;;;;;24.89;62.84;98540.12;129759;1093;22606;-68
2021/07/03 08:57:34;;;;;;;10.23;4.75;;;;;;;24.98;61.79;98539.86;129794;1093;22538;-69
2021/07/03 09:00:02;;;;;;;6.15;4.25;;;;;;;25.04;61.42;98546.72;129644;1093;114282;-68
2021/07/03 09:02:37;;;;;;;5.68;4.63;;;;;;;25.07;60.58;98534.83;129759;1092;22610;-68
2021/07/03 09:05:29;;;;;;;6.73;5.10;;;;;;;25.06;60.36;98535.20;129596;1093;113906;-68
2021/07/03 09:08:01;;;;;;;6.08;5.00;;;;;;;25.00;60.18;98540.28;129782;1093;22534;-68
2021/07/03 09:10:29;;;;;;;5.28;4.63;;;;;;;24.97;60.66;98529.89;129662;1092;114070;-68
2021/07/03 09:12:59;;;;;;;5.83;4.45;;;;;;;24.95;60.10;98530.30;129775;1093;22709;-68
2021/07/03 09:15:40;;;;;;;5.88;4.73;;;;;;;24.95;59.20;98521.93;129782;1092;23311;-65
2021/07/03 09:18:13;;;;;;;4.45;3.80;;;;;;;24.97;58.49;98527.09;129659;1093;114115;-65
2021/07/03 09:20:51;;;;;;;5.20;4.53;;;;;;;24.97;58.43;98519.55;129756;1093;23418;-66
2021/07/03 09:23:23;;;;;;;7.50;4.30;;;;;;;24.97;57.70;98522.33;129649;1093;113982;-66
2021/07/03 09:25:53;;;;;;;5.53;3.95;;;;;;;24.94;57.69;98520.32;129798;1092;23196;-65
2021/07/03 09:28:24;;;;;;;5.38;4.20;;;;;;;24.90;58.17;98516.64;129658;1093;113792;-66
2021/07/03 09:30:57;;;;;;;5.95;4.38;;;;;;;24.92;58.28;98519.06;129797;1093;22617;-65
2021/07/03 09:33:26;;;;;;;7.43;4.20;;;;;;;24.94;58.15;98514.75;129792;1093;22516;-65
2021/07/03 09:36:01;;;;;;;6.83;4.48;;;;;;;24.95;58.07;98518.34;129647;1093;114081;-65
2021/07/03 09:38:35;;;;;;;5.90;4.28;;;;;;;24.96;58.03;98517.94;129715;1093;22682;-65
2021/07/03 09:41:21;;;;;;;13.65;4.48;;;;;;;25.01;57.91;98517.61;129667;1093;113894;-65
2021/07/03 09:43:52;;;;;;;11.80;4.98;;;;;;;25.09;58.43;98520.52;129809;1092;22565;-66
2021/07/03 09:46:23;;;;;;;5.37;3.83;;;;;;;25.19;57.78;98522.63;129695;1093;114527;-68
2021/07/03 09:48:53;;;;;;;8.70;4.18;;;;;;;25.25;57.87;98513.52;129697;1093;22602;-68
2021/07/03 09:51:31;;;;;;;11.58;4.55;;;;;;;25.33;58.44;98517.22;129799;1092;22541;-68
2021/07/03 09:53:59;;;;;;;7.28;4.10;;;;;;;25.42;57.17;98514.92;129667;1093;114072;-69
2021/07/03 09:56:27;;;;;;;9.83;3.95;;;;;;;25.48;57.78;98510.63;129797;1093;22671;-68
2021/07/03 09:58:55;;;;;;;5.58;3.80;;;;;;;25.55;57.92;98510.69;129642;1093;117894;-67
2021/07/03 10:01:22;;;;;;;4.28;3.70;;;;;;;25.66;57.65;98519.22;129744;1093;22566;-68
2021/07/03 10:03:50;;;;;;;6.13;3.38;;;;;;;25.74;56.48;98517.29;129724;1093;22538;-68
2021/07/03 10:06:29;;;;;;;7.43;4.18;;;;;;;25.82;56.53;98508.63;129695;1093;113699;-67
2021/07/03 10:09:02;;;;;;;9.90;4.00;;;;;;;25.89;55.98;98505.89;129720;1093;22534;-67
2021/07/03 10:11:31;;;;;;;6.35;3.65;;;;;;;25.98;56.53;98508.34;129635;1092;113891;-68
2021/07/03 10:14:03;;;;;;;10.98;4.45;;;;;;;26.05;55.58;98498.06;129720;1092;22558;-68
2021/07/03 10:16:33;;;;;;;5.75;3.45;;;;;;;26.13;54.07;98492.52;129599;1093;113903;-68
2021/07/03 10:19:13;;;;;;;9.95;3.50;;;;;;;26.18;54.63;98495.77;129737;1093;22967;-69
2021/07/03 10:21:42;;;;;;;7.00;4.25;;;;;;;26.25;55.25;98487.47;129776;1093;22550;-69
2021/07/03 10:24:19;;;;;;;11.83;5.18;;;;;;;26.30;54.66;98484.32;129665;1092;113857;-69
2021/07/03 10:26:47;;;;;;;7.85;3.95;;;;;;;26.31;55.25;98480.34;126757;1092;22908;-65
2021/07/03 10:29:21;;;;;;;5.93;4.58;;;;;;;26.33;55.92;98477.97;129631;1093;113878;-66
2021/07/03 10:31:50;;;;;;;4.18;3.48;;;;;;;26.36;55.86;98477.20;129789;1092;22570;-66
2021/07/03 10:34:32;;;;;;;5.88;3.43;;;;;;;26.38;54.70;98477.61;129659;1092;114262;-66
2021/07/03 10:37:10;;;;;;;27.78;5.40;;;;;;;26.43;54.79;98478.42;129806;1092;22544;-66
2021/07/03 10:39:38;;;;;;;8.60;3.60;;;;;;;26.47;54.22;98480.05;129754;1092;22684;-66
2021/07/03 10:42:05;;;;;;;6.00;3.70;;;;;;;26.52;54.36;98478.90;129702;1092;113742;-66
2021/07/03 10:44:37;;;;;;;8.53;4.03;;;;;;;26.55;54.64;98486.48;129741;1093;22650;-66
2021/07/03 10:47:09;;;;;;;6.28;4.33;;;;;;;26.58;54.04;98489.30;129707;1093;113898;-66
2021/07/03 10:49:38;;;;;;;8.85;3.85;;;;;;;26.63;54.00;98490.94;129760;1093;22584;-66
2021/07/03 10:52:14;;;;;;;13.38;3.53;;;;;;;26.63;53.37;98488.14;129670;1092;114114;-65
2021/07/03 10:54:43;;;;;;;6.15;3.95;;;;;;;26.64;53.93;98489.75;129738;1093;22546;-66
2021/07/03 10:57:11;;;;;;;6.63;3.60;;;;;;;26.65;54.15;98500.53;125961;1092;22905;-65
2021/07/03 10:59:42;;;;;;;10.53;3.78;;;;;;;26.68;55.38;98494.17;129497;1093;113783;-66
2021/07/03 11:02:17;;;;;;;7.80;4.15;;;;;;;26.71;54.39;98492.56;129768;1093;23206;-66
2021/07/03 11:04:52;;;;;;;7.18;4.00;;;;;;;26.72;53.86;98494.17;129679;1093;114211;-66
2021/07/03 11:07:21;;;;;;;4.40;3.75;;;;;;;26.74;53.75;98494.59;129799;1093;22593;-66
2021/07/03 11:09:48;;;;;;;8.35;4.00;;;;;;;26.75;54.05;98493.40;129761;1092;23486;-66
2021/07/03 11:12:23;;;;;;;6.00;3.53;;;;;;;26.79;54.51;98494.23;129679;1093;114087;-66
2021/07/03 11:14:52;;;;;;;5.68;3.80;;;;;;;26.80;54.32;98495.83;129787;1093;22603;-66
2021/07/03 11:17:22;;;;;;;4.48;3.90;;;;;;;26.82;54.67;98503.83;129672;1093;114092;-66
2021/07/03 11:19:51;;;;;;;7.20;3.30;;;;;;;26.81;54.54;98500.23;129753;1092;22611;-66
2021/07/03 11:22:23;;;;;;;8.58;3.65;;;;;;;26.80;54.91;98507.02;129636;1093;114403;-66
2021/07/03 11:24:52;;;;;;;5.83;3.50;;;;;;;26.76;54.91;98506.98;129792;1092;22618;-66
2021/07/03 11:27:55;;;;;;;8.45;3.73;;;;;;;26.71;54.08;98492.56;129733;1093;22546;-66
2021/07/03 11:30:23;;;;;;;8.70;4.10;;;;;;;26.64;54.06;98486.95;129329;1096;114001;-66
2021/07/03 11:32:55;;;;;;;9.15;3.38;;;;;;;26.59;54.57;98487.31;129306;1096;23627;-66
2021/07/03 11:35:23;;;;;;;56.28;8.08;;;;;;;26.55;54.24;98487.28;128883;1096;114073;-68
2021/07/03 11:37:50;;;;;;;7.00;4.40;;;;;;;26.52;53.95;98481.69;124710;1096;24455;-69
2021/07/03 11:40:22;;;;;;;7.35;4.03;;;;;;;26.48;54.94;98472.48;124694;1096;114459;-68